Time;durP1;ratioP1;P1;durP2;ratioP2;P2;SDS_P1;SDS_P2;PMS_P1;PMS_P2;Temp;Humidity;BMP_temperature;BMP_pressure;BME280_temperature;BME280_humidity;BME280_pressure;Samples;Min_cycle;Max_cycle;Signal;HPM_P1;HPM_P2
2022/01/09 00:00:51;;;;;;;0.50;0.50;;;;;;;-0.24;100.00;91092.56;2105830;28;20028;-84
2022/01/09 00:01:53;;;;;;;0.68;0.68;;;;;;;-0.33;100.00;91090.44;2089009;28;20045;-86
2022/01/09 00:02:53;;;;;;;0.63;0.63;;;;;;;-0.31;100.00;91085.53;2113312;27;20023;-84
2022/01/09 00:03:54;;;;;;;0.60;0.60;;;;;;;-0.14;100.00;91081.16;2113781;28;20748;-86
2022/01/09 00:04:55;;;;;;;0.50;0.50;;;;;;;-0.35;100.00;91087.47;2105722;28;20521;-85
2022/01/09 00:05:56;;;;;;;0.40;0.40;;;;;;;-0.22;100.00;91085.78;2114248;28;20035;-86
2022/01/09 00:06:57;;;;;;;0.45;0.45;;;;;;;-0.42;100.00;91084.94;2105783;28;20024;-86
2022/01/09 00:07:58;;;;;;;0.50;0.50;;;;;;;-0.33;100.00;91077.31;2105471;28;20016;-82
2022/01/09 00:09:00;;;;;;;0.47;0.40;;;;;;;-0.38;100.00;91077.78;2105649;28;20066;-85
2022/01/09 00:10:01;;;;;;;0.60;0.60;;;;;;;-0.49;100.00;91077.16;2109724;28;20036;-85
2022/01/09 00:11:02;;;;;;;0.40;0.40;;;;;;;-0.46;100.00;91074.50;2105652;28;20036;-86
2022/01/09 00:12:03;;;;;;;0.73;0.50;;;;;;;-0.52;100.00;91076.84;2097660;28;20116;-85
2022/01/09 00:13:05;;;;;;;0.50;0.50;;;;;;;-0.41;100.00;91078.56;2105884;28;20020;-86
2022/01/09 00:14:06;;;;;;;0.63;0.63;;;;;;;-0.36;100.00;91073.59;2106206;28;20119;-85
2022/01/09 00:15:08;;;;;;;0.40;0.40;;;;;;;-0.47;100.00;91067.78;2097492;28;20016;-85
2022/01/09 00:16:09;;;;;;;0.82;0.40;;;;;;;-0.52;100.00;91066.34;2090942;28;20154;-86
2022/01/09 00:17:10;;;;;;;0.50;0.50;;;;;;;-0.49;100.00;91071.91;2097543;28;20334;-87
2022/01/09 00:18:13;;;;;;;0.47;0.47;;;;;;;-0.38;100.00;91073.25;2097247;28;20048;-85
2022/01/09 00:19:16;;;;;;;0.50;0.50;;;;;;;-0.31;100.00;91065.28;2099256;27;20020;-86
2022/01/09 00:20:17;;;;;;;0.40;0.40;;;;;;;-0.45;100.00;91067.38;2106106;28;20097;-86
2022/01/09 00:21:18;;;;;;;0.40;0.40;;;;;;;-0.35;100.00;91063.84;2095285;28;20028;-86
2022/01/09 00:22:29;;;;;;;0.30;0.30;;;;;;;-0.38;100.00;91062.78;2089272;28;20043;-87
2022/01/09 00:23:33;;;;;;;0.40;0.40;;;;;;;-0.36;100.00;91059.75;2102806;28;20503;-86
2022/01/09 00:24:34;;;;;;;0.55;0.38;;;;;;;-0.52;100.00;91055.84;2102115;28;20723;-86
2022/01/09 00:25:35;;;;;;;0.30;0.30;;;;;;;-0.45;100.00;91062.13;2093188;28;20025;-86
2022/01/09 00:26:36;;;;;;;0.30;0.30;;;;;;;-0.30;100.00;91052.91;2094390;28;20024;-87
2022/01/09 00:27:37;;;;;;;0.30;0.30;;;;;;;-0.45;100.00;91062.13;2104807;28;20684;-87
2022/01/09 00:28:38;;;;;;;0.25;0.25;;;;;;;-0.30;100.00;91060.78;2102829;28;20127;-86
2022/01/09 00:29:39;;;;;;;0.22;0.22;;;;;;;-0.32;100.00;91063.06;2105119;28;20099;-85
2022/01/09 00:30:40;;;;;;;0.40;0.40;;;;;;;-0.32;100.00;91055.19;2093936;28;20032;-86
2022/01/09 00:31:41;;;;;;;0.32;0.32;;;;;;;-0.35;100.00;91055.97;2109884;28;20027;-84
2022/01/09 00:32:42;;;;;;;0.20;0.20;;;;;;;-0.32;100.00;91055.19;2109720;28;20050;-86
2022/01/09 00:33:45;;;;;;;0.20;0.20;;;;;;;-0.22;100.00;91056.16;2094700;28;20115;-85
2022/01/09 00:34:46;;;;;;;0.25;0.25;;;;;;;-0.39;100.00;91060.56;2105881;28;20095;-84
2022/01/09 00:35:49;;;;;;;0.30;0.30;;;;;;;-0.47;100.00;91064.41;2114031;27;20019;-84
2022/01/09 00:36:49;;;;;;;0.30;0.30;;;;;;;-0.35;100.00;91056.72;2105594;28;20027;-87
2022/01/09 00:37:50;;;;;;;0.20;0.20;;;;;;;-0.40;100.00;91053.78;2098659;28;20068;-84
2022/01/09 00:38:51;;;;;;;0.30;0.30;;;;;;;-0.53;100.00;91062.25;2096144;28;20028;-84
2022/01/09 00:39:52;;;;;;;0.30;0.30;;;;;;;-0.49;100.00;91058.81;2097218;28;20032;-86
2022/01/09 00:40:53;;;;;;;0.30;0.30;;;;;;;-0.55;100.00;91056.63;2098234;28;20047;-84
2022/01/09 00:41:54;;;;;;;0.30;0.30;;;;;;;-0.42;100.00;91048.22;2112977;28;20027;-86
2022/01/09 00:42:55;;;;;;;0.30;0.30;;;;;;;-0.43;100.00;91046.72;2109867;28;20026;-85
2022/01/09 00:43:58;;;;;;;0.63;0.20;;;;;;;-0.39;100.00;91061.28;2108960;28;20126;-86
2022/01/09 00:44:59;;;;;;;0.40;0.40;;;;;;;-0.42;100.00;91050.84;2118101;27;20515;-85
2022/01/09 00:46:00;;;;;;;0.30;0.30;;;;;;;-0.58;100.00;91064.53;2101723;28;20071;-85
2022/01/09 00:47:01;;;;;;;0.40;0.40;;;;;;;-0.59;100.00;91065.69;2105093;28;20024;-85
2022/01/09 00:48:02;;;;;;;0.30;0.30;;;;;;;-0.71;100.00;91066.97;2101859;28;20527;-86
2022/01/09 00:49:04;;;;;;;0.35;0.30;;;;;;;-0.63;100.00;91063.09;2096720;28;20059;-84
2022/01/09 00:50:07;;;;;;;0.30;0.30;;;;;;;-0.39;100.00;91060.56;2100439;28;20024;-85
2022/01/09 00:51:08;;;;;;;0.30;0.30;;;;;;;-0.16;100.00;91055.31;2098139;28;20489;-87
2022/01/09 00:52:14;;;;;;;0.35;0.30;;;;;;;-0.35;100.00;91066.47;2094484;28;20029;-87
2022/01/09 00:53:15;;;;;;;0.38;0.38;;;;;;;-0.55;100.00;91061.88;2093575;28;20091;-85
2022/01/09 00:54:16;;;;;;;0.73;0.30;;;;;;;-0.47;100.00;91064.41;2098380;28;20059;-85
2022/01/09 00:55:18;;;;;;;1.50;0.40;;;;;;;-0.30;100.00;91066.03;2097778;28;20028;-85
2022/01/09 00:56:20;;;;;;;0.30;0.30;;;;;;;-0.29;100.00;91054.38;2090015;28;20021;-86
2022/01/09 00:57:22;;;;;;;0.30;0.30;;;;;;;-0.36;100.00;91070.22;2105293;28;20516;-85
2022/01/09 00:58:23;;;;;;;0.30;0.30;;;;;;;-0.16;100.00;91075.56;2101360;28;20069;-86
2022/01/09 00:59:24;;;;;;;0.30;0.30;;;;;;;-0.38;100.00;91068.00;2102978;28;20062;-86
2022/01/09 01:00:25;;;;;;;0.30;0.30;;;;;;;-0.25;100.00;91060.34;2097887;28;20055;-86
2022/01/09 01:01:30;;;;;;;0.30;0.30;;;;;;;-0.33;100.00;91064.94;2106602;28;20058;-85
2022/01/09 01:02:31;;;;;;;0.40;0.40;;;;;;;-0.29;100.00;91057.00;2106411;28;20507;-85
2022/01/09 01:03:32;;;;;;;0.25;0.25;;;;;;;-0.48;100.00;91058.41;2106261;28;20067;-86
2022/01/09 01:04:42;;;;;;;0.50;0.40;;;;;;;-0.43;100.00;91054.59;2093832;28;20024;-86
2022/01/09 01:05:43;;;;;;;;;;;;;;;-0.39;100.00;91050.78;2107873;28;20424;-87
2022/01/09 01:06:45;;;;;;;0.35;0.30;;;;;;;-0.38;100.00;91051.53;2114747;28;19912;-85
2022/01/09 01:07:49;;;;;;;0.30;0.30;;;;;;;-0.30;100.00;91051.03;2106245;28;20020;-86
2022/01/09 01:08:53;;;;;;;0.20;0.20;;;;;;;-0.45;100.00;91056.88;2090534;28;20044;-85
2022/01/09 01:09:59;;;;;;;0.32;0.32;;;;;;;-0.30;100.00;91055.53;2090032;28;20374;-86
2022/01/09 01:11:00;;;;;;;0.40;0.40;;;;;;;-0.38;100.00;91062.03;2090947;28;20025;-84
2022/01/09 01:12:02;;;;;;;0.30;0.30;;;;;;;-0.45;100.00;91057.63;2097760;28;20076;-86
2022/01/09 01:13:03;;;;;;;0.30;0.30;;;;;;;-0.39;100.00;91065.78;2098261;28;20063;-86
2022/01/09 01:14:04;;;;;;;0.40;0.40;;;;;;;-0.44;100.00;91066.22;2097833;28;20118;-85
2022/01/09 01:15:06;;;;;;;0.40;0.40;;;;;;;-0.41;100.00;91076.69;2090038;28;20151;-86
2022/01/09 01:16:07;;;;;;;0.30;0.30;;;;;;;-0.35;100.00;91059.34;2113717;28;20080;-85
2022/01/09 01:17:09;;;;;;;0.30;0.30;;;;;;;-0.47;100.00;91062.53;2097681;28;20103;-86
2022/01/09 01:18:10;;;;;;;0.50;0.30;;;;;;;-0.05;100.00;91055.88;2098035;28;20123;-86
2022/01/09 01:19:11;;;;;;;0.50;0.30;;;;;;;-0.33;100.00;91072.81;2115910;27;20198;-86
2022/01/09 01:20:12;;;;;;;0.57;0.43;;;;;;;-0.46;100.00;91066.63;2099221;28;20020;-86
2022/01/09 01:21:14;;;;;;;0.32;0.32;;;;;;;-0.58;100.00;91065.28;2106074;28;20075;-86
2022/01/09 01:22:15;;;;;;;0.40;0.40;;;;;;;-0.59;100.00;91074.31;2106066;28;20158;-84
2022/01/09 01:23:16;;;;;;;0.98;0.30;;;;;;;-0.34;100.00;91079.22;2097892;28;20024;-84
2022/01/09 01:24:18;;;;;;;0.30;0.30;;;;;;;-0.41;100.00;91074.06;2097684;28;20021;-85
2022/01/09 01:25:21;;;;;;;0.30;0.30;;;;;;;-0.38;100.00;91081.13;2098265;28;20035;-85
2022/01/09 01:26:22;;;;;;;0.30;0.30;;;;;;;-0.30;100.00;91077.28;2097982;28;20028;-86
2022/01/09 01:27:23;;;;;;;0.30;0.30;;;;;;;-0.24;100.00;91068.94;2089486;28;20025;-86
2022/01/09 01:28:24;;;;;;;0.30;0.30;;;;;;;0.01;100.00;91071.19;2092488;28;20054;-86
2022/01/09 01:29:25;;;;;;;0.45;0.45;;;;;;;-0.04;100.00;91073.13;2089439;28;20036;-88
2022/01/09 01:30:27;;;;;;;0.30;0.30;;;;;;;-0.12;100.00;91068.41;2097769;28;20032;-85
2022/01/09 01:31:28;;;;;;;0.25;0.25;;;;;;;-0.19;100.00;91073.75;2097715;28;20057;-87
2022/01/09 01:32:29;;;;;;;0.25;0.25;;;;;;;-0.35;100.00;91087.47;2101519;28;20024;-84
2022/01/09 01:33:30;;;;;;;0.30;0.30;;;;;;;-0.32;100.00;91087.41;2105957;28;20107;-85
2022/01/09 01:34:33;;;;;;;0.30;0.30;;;;;;;-0.09;100.00;91073.59;2110302;28;20047;-86
2022/01/09 01:35:34;;;;;;;0.28;0.28;;;;;;;-0.10;100.00;91073.97;2102259;28;20527;-86
2022/01/09 01:36:35;;;;;;;0.38;0.20;;;;;;;0.02;100.00;91070.06;2097453;28;20054;-86
2022/01/09 01:37:41;;;;;;;0.20;0.20;;;;;;;0.20;100.00;91060.72;2089430;28;20710;-86
2022/01/09 01:38:42;;;;;;;0.30;0.30;;;;;;;0.10;100.00;91076.69;2099436;28;20020;-87
2022/01/09 01:39:43;;;;;;;0.35;0.35;;;;;;;-0.01;100.00;91069.69;2111854;28;20023;-85
2022/01/09 01:40:44;;;;;;;0.30;0.30;;;;;;;-0.02;100.00;91072.72;2099987;28;20024;-85
2022/01/09 01:41:45;;;;;;;0.30;0.30;;;;;;;-0.02;100.00;91083.22;2099368;28;20058;-86
2022/01/09 01:42:46;;;;;;;0.30;0.30;;;;;;;-0.08;100.00;91075.06;2105988;28;20020;-87
2022/01/09 01:43:47;;;;;;;0.20;0.20;;;;;;;-0.26;100.00;91071.97;2114287;28;20076;-83
2022/01/09 01:44:49;;;;;;;0.30;0.30;;;;;;;-0.23;100.00;91070.44;2105965;28;20638;-84
2022/01/09 01:46:14;;;;;;;0.45;0.20;;;;;;;-0.03;100.00;91076.50;2104770;28;20072;-85
2022/01/09 01:47:19;;;;;;;0.30;0.30;;;;;;;-0.04;100.00;91067.88;2102499;28;20366;-86
2022/01/09 01:48:20;;;;;;;0.30;0.30;;;;;;;0.04;100.00;91057.25;2104689;28;20035;-85
2022/01/09 01:49:21;;;;;;;0.20;0.20;;;;;;;-0.16;100.00;91057.94;2100185;28;20650;-85
2022/01/09 01:50:21;;;;;;;0.30;0.30;;;;;;;0.02;100.00;91065.53;2097460;28;20653;-85
2022/01/09 01:51:22;;;;;;;0.30;0.30;;;;;;;0.08;100.00;91061.31;2100485;28;20036;-85
2022/01/09 01:52:29;;;;;;;0.28;0.28;;;;;;;-0.05;100.00;91065.63;2100472;28;20036;-84
2022/01/09 01:53:30;;;;;;;0.30;0.30;;;;;;;0.06;100.00;91050.47;2099072;28;20040;-85
2022/01/09 01:54:32;;;;;;;0.38;0.30;;;;;;;-0.03;100.00;91050.25;2106026;28;20065;-85
2022/01/09 01:55:37;;;;;;;0.40;0.30;;;;;;;0.36;100.00;91057.47;2097979;28;20106;-83
2022/01/09 01:56:38;;;;;;;0.98;0.25;;;;;;;0.24;100.00;91042.28;2098055;28;20054;-82
2022/01/09 01:57:42;;;;;;;0.38;0.30;;;;;;;0.37;100.00;91037.19;2089334;28;20017;-85
2022/01/09 01:58:43;;;;;;;0.30;0.30;;;;;;;0.36;100.00;91046.97;2103448;28;20121;-84
2022/01/09 01:59:44;;;;;;;0.80;0.40;;;;;;;0.24;100.00;91056.16;2111482;28;20049;-83
2022/01/09 02:00:45;;;;;;;0.30;0.30;;;;;;;0.35;100.00;91055.22;2105618;28;20024;-82
2022/01/09 02:01:46;;;;;;;0.20;0.20;;;;;;;0.49;100.00;91053.13;2120181;27;20030;-84
2022/01/09 02:02:47;;;;;;;0.30;0.25;;;;;;;0.41;100.00;91051.75;2105969;28;20048;-83
2022/01/09 02:03:48;;;;;;;0.25;0.25;;;;;;;0.41;100.00;91056.28;2097710;28;20024;-84
2022/01/09 02:04:49;;;;;;;0.73;0.30;;;;;;;0.60;100.00;91054.81;2114351;28;20383;-84
2022/01/09 02:05:50;;;;;;;0.22;0.22;;;;;;;0.39;100.00;91053.28;2114350;28;20050;-84
2022/01/09 02:06:57;;;;;;;0.63;0.30;;;;;;;0.37;100.00;91045.06;2105644;28;20143;-84
2022/01/09 02:08:00;;;;;;;0.20;0.20;;;;;;;0.40;100.00;91046.91;2106683;28;20086;-84
2022/01/09 02:10:10;;;;;;;0.93;0.30;;;;;;;0.25;100.00;91056.91;2132911;27;20191;-80
2022/01/09 02:11:12;;;;;;;0.20;0.20;;;;;;;0.42;100.00;91055.84;2112973;28;20424;-81
2022/01/09 02:12:13;;;;;;;0.32;0.20;;;;;;;0.40;100.00;91055.53;2096719;28;20030;-81
2022/01/09 02:13:17;;;;;;;0.60;0.22;;;;;;;0.23;100.00;91059.19;2104653;28;20047;-81
2022/01/09 02:14:18;;;;;;;0.20;0.20;;;;;;;0.29;100.00;91054.22;2105067;28;20028;-82
2022/01/09 02:15:45;;;;;;;0.35;0.30;;;;;;;0.24;100.00;91052.81;2096421;28;20462;-82
2022/01/09 02:16:51;;;;;;;0.20;0.20;;;;;;;0.73;100.00;91050.44;2095267;28;20028;-82
2022/01/09 02:17:54;;;;;;;0.77;0.30;;;;;;;0.46;100.00;91051.28;2089650;28;20417;-81
2022/01/09 02:19:02;;;;;;;0.22;0.20;;;;;;;0.85;100.00;91047.19;2096303;28;20051;-81
2022/01/09 02:20:06;;;;;;;0.20;0.20;;;;;;;0.59;100.00;91048.06;2090042;28;20132;-81
2022/01/09 02:21:15;;;;;;;0.20;0.20;;;;;;;0.61;100.00;91061.53;2088874;28;20021;-81
2022/01/09 02:22:16;;;;;;;0.25;0.25;;;;;;;0.73;100.00;91060.94;2097038;28;20030;-82
2022/01/09 02:23:22;;;;;;;0.45;0.20;;;;;;;0.89;100.00;91047.88;2096350;28;20020;-82
2022/01/09 02:24:25;;;;;;;0.20;0.20;;;;;;;0.74;100.00;91050.00;2097860;28;20020;-81
2022/01/09 02:25:27;;;;;;;0.30;0.30;;;;;;;0.51;100.00;91044.81;2096486;28;20082;-83
2022/01/09 02:26:28;;;;;;;0.20;0.20;;;;;;;0.46;100.00;91045.28;2088224;28;20086;-84
2022/01/09 02:27:37;;;;;;;0.65;0.30;;;;;;;0.32;100.00;91048.91;2087910;28;20021;-82
2022/01/09 02:28:42;;;;;;;0.30;0.30;;;;;;;0.67;100.00;91042.28;2097415;28;20036;-82
2022/01/09 02:29:51;;;;;;;0.20;0.20;;;;;;;0.61;100.00;91051.75;2089041;28;20116;-82
2022/01/09 02:30:57;;;;;;;0.25;0.25;;;;;;;0.63;100.00;91057.38;2090116;28;20033;-80
2022/01/09 02:31:58;;;;;;;0.45;0.20;;;;;;;0.50;100.00;91054.59;2097366;28;20059;-81
2022/01/09 02:33:00;;;;;;;0.40;0.30;;;;;;;0.45;100.00;91059.56;2095892;28;20460;-81
2022/01/09 02:34:01;;;;;;;0.10;0.10;;;;;;;0.70;100.00;91057.25;2088413;28;20028;-81
2022/01/09 02:35:03;;;;;;;2.28;0.30;;;;;;;0.64;100.00;91061.47;2096511;28;20440;-80
2022/01/09 02:36:09;;;;;;;1.13;0.20;;;;;;;0.75;100.00;91050.78;2096262;28;20087;-80
2022/01/09 02:37:11;;;;;;;0.43;0.30;;;;;;;0.49;100.00;91052.38;2090671;28;20529;-80
2022/01/09 02:38:12;;;;;;;0.28;0.28;;;;;;;0.42;100.00;91057.75;2112910;28;20097;-80
2022/01/09 02:39:13;;;;;;;0.20;0.20;;;;;;;0.43;100.00;91054.72;2104315;28;20028;-82
2022/01/09 02:40:14;;;;;;;0.20;0.20;;;;;;;0.48;100.00;91051.63;2097122;28;20021;-81
2022/01/09 02:41:18;;;;;;;0.20;0.20;;;;;;;0.40;100.00;91050.28;2104388;28;20029;-83
2022/01/09 02:42:24;;;;;;;0.28;0.25;;;;;;;0.36;100.00;91041.72;2096943;28;20056;-81
2022/01/09 02:43:26;;;;;;;0.55;0.20;;;;;;;0.72;100.00;91052.31;2097653;28;20025;-81
2022/01/09 02:44:27;;;;;;;0.50;0.40;;;;;;;0.65;100.00;91039.28;2096371;28;20115;-81
2022/01/09 02:45:29;;;;;;;0.30;0.30;;;;;;;0.62;100.00;91053.25;2096183;28;20028;-82
2022/01/09 02:47:59;;;;;;;0.20;0.20;;;;;;;1.01;100.00;91049.16;2109920;28;20131;-82
2022/01/09 02:49:06;;;;;;;0.60;0.40;;;;;;;0.93;100.00;91059.06;2105615;28;20020;-83
2022/01/09 02:51:25;;;;;;;0.10;0.10;;;;;;;0.67;100.00;91062.56;2108699;28;20078;-82
2022/01/09 02:52:35;;;;;;;0.17;0.17;;;;;;;0.54;100.00;91059.06;2104811;28;20086;-83
2022/01/09 02:53:38;;;;;;;0.20;0.20;;;;;;;0.55;100.00;91063.91;2097477;28;20044;-81
2022/01/09 02:56:06;;;;;;;0.28;0.28;;;;;;;0.32;100.00;91056.78;2106863;28;20591;-83
2022/01/09 02:57:08;;;;;;;0.82;0.30;;;;;;;0.45;100.00;91075.34;2105596;28;20052;-82
2022/01/09 02:58:10;;;;;;;0.20;0.20;;;;;;;0.46;100.00;91067.06;2112483;28;20032;-82
2022/01/09 02:59:14;;;;;;;0.20;0.20;;;;;;;0.42;100.00;91076.13;2104430;28;20154;-84
2022/01/09 03:00:19;;;;;;;0.13;0.13;;;;;;;0.56;100.00;91065.38;2113349;28;20047;-82
2022/01/09 03:01:23;;;;;;;0.70;0.20;;;;;;;0.54;100.00;91066.94;2113163;28;20024;-83
2022/01/09 03:02:24;;;;;;;0.20;0.20;;;;;;;0.60;100.00;91066.06;2104477;28;20441;-83
2022/01/09 03:03:26;;;;;;;0.10;0.10;;;;;;;0.43;100.00;91059.97;2104156;28;20115;-83
2022/01/09 03:04:27;;;;;;;0.20;0.20;;;;;;;0.70;100.00;91065.13;2098169;28;20088;-82
2022/01/09 03:05:29;;;;;;;0.20;0.20;;;;;;;0.70;100.00;91067.75;2104196;28;20073;-82
2022/01/09 03:06:31;;;;;;;0.20;0.20;;;;;;;0.44;100.00;91076.47;2096102;28;20474;-83
2022/01/09 03:07:34;;;;;;;0.30;0.25;;;;;;;0.25;100.00;91070.03;2087709;28;20103;-82
2022/01/09 03:08:35;;;;;;;0.30;0.20;;;;;;;0.35;100.00;91079.66;2104936;28;20020;-81
2022/01/09 03:09:37;;;;;;;0.17;0.15;;;;;;;0.37;100.00;91081.88;2103956;28;20067;-82
2022/01/09 03:10:40;;;;;;;0.20;0.20;;;;;;;0.48;100.00;91075.28;2095803;28;20410;-82
2022/01/09 03:11:41;;;;;;;1.65;0.45;;;;;;;0.40;100.00;91081.81;2088472;28;20033;-81
2022/01/09 03:12:43;;;;;;;0.20;0.20;;;;;;;0.45;100.00;91068.19;2087510;28;20115;-83
2022/01/09 03:13:44;;;;;;;0.65;0.20;;;;;;;0.50;100.00;91078.25;2095759;28;20028;-83
2022/01/09 03:14:46;;;;;;;0.47;0.20;;;;;;;0.33;100.00;91079.28;2087671;28;20622;-81
2022/01/09 03:15:47;;;;;;;0.20;0.20;;;;;;;0.31;100.00;91076.34;2079501;28;20029;-83
2022/01/09 03:16:48;;;;;;;0.20;0.20;;;;;;;0.46;100.00;91067.06;2085269;28;20437;-82
2022/01/09 03:17:49;;;;;;;0.30;0.30;;;;;;;0.40;100.00;91086.31;2095670;28;20028;-82
2022/01/09 03:18:50;;;;;;;0.20;0.20;;;;;;;0.50;100.00;91077.50;2095297;28;20031;-82
2022/01/09 03:19:51;;;;;;;0.32;0.20;;;;;;;0.53;100.00;91086.47;2102961;28;20047;-82
2022/01/09 03:20:52;;;;;;;0.20;0.20;;;;;;;0.54;100.00;91056.41;2101470;28;20039;-82
2022/01/09 03:21:55;;;;;;;0.20;0.20;;;;;;;0.60;100.00;91083.72;2097159;28;20075;-81
2022/01/09 03:22:57;;;;;;;0.47;0.20;;;;;;;0.75;100.00;91096.22;2097460;28;20031;-82
2022/01/09 03:23:59;;;;;;;0.85;0.20;;;;;;;0.79;100.00;91096.16;2079433;28;20052;-82
2022/01/09 03:25:00;;;;;;;0.30;0.30;;;;;;;0.88;100.00;91101.63;2081074;28;20022;-83
2022/01/09 03:26:02;;;;;;;0.20;0.20;;;;;;;0.80;100.00;91075.84;2089642;28;20418;-81
2022/01/09 03:27:04;;;;;;;0.20;0.20;;;;;;;0.62;100.00;91079.56;2098729;28;20519;-82
2022/01/09 03:28:05;;;;;;;0.30;0.30;;;;;;;0.46;100.00;91085.44;2106738;28;20073;-82
2022/01/09 03:29:14;;;;;;;0.22;0.20;;;;;;;0.53;100.00;91079.34;2090132;28;20477;-81
2022/01/09 03:30:18;;;;;;;0.28;0.28;;;;;;;0.52;100.00;91082.34;2084225;28;20128;-81
2022/01/09 03:31:19;;;;;;;0.20;0.20;;;;;;;0.69;100.00;91076.03;2091022;28;20112;-82
2022/01/09 03:32:20;;;;;;;0.30;0.30;;;;;;;0.53;100.00;91091.72;2098014;28;20024;-82
2022/01/09 03:33:26;;;;;;;0.20;0.20;;;;;;;0.34;100.00;91085.28;2092554;28;20021;-83
2022/01/09 03:34:33;;;;;;;0.20;0.20;;;;;;;0.25;100.00;91083.91;2090632;28;20106;-82
2022/01/09 03:35:41;;;;;;;0.20;0.20;;;;;;;0.30;100.00;91087.97;2102575;28;20872;-81
2022/01/09 03:36:46;;;;;;;2.08;0.20;;;;;;;0.32;100.00;91098.09;2103457;28;20034;-82
2022/01/09 03:37:53;;;;;;;0.52;0.20;;;;;;;0.24;100.00;91100.81;2098852;28;20032;-82
2022/01/09 03:38:54;;;;;;;0.20;0.20;;;;;;;0.49;100.00;91113.56;2105736;28;20518;-81
2022/01/09 03:39:55;;;;;;;0.20;0.20;;;;;;;0.41;100.00;91104.31;2113615;28;20043;-81
2022/01/09 03:40:56;;;;;;;0.20;0.20;;;;;;;0.62;100.00;91112.97;2098297;28;20028;-83
2022/01/09 03:41:58;;;;;;;0.22;0.22;;;;;;;0.69;100.00;91118.09;2105658;28;20182;-81
2022/01/09 03:42:59;;;;;;;0.20;0.20;;;;;;;0.77;100.00;91116.84;2102248;28;20035;-82
2022/01/09 03:44:00;;;;;;;0.45;0.20;;;;;;;0.56;100.00;91117.19;2098263;28;20056;-82
2022/01/09 03:45:04;;;;;;;0.10;0.10;;;;;;;0.54;100.00;91114.97;2097912;28;20024;-81
2022/01/09 03:46:05;;;;;;;0.20;0.20;;;;;;;0.43;100.00;91132.81;2090523;28;20459;-82
2022/01/09 03:47:06;;;;;;;0.20;0.20;;;;;;;0.14;100.00;91130.63;2098006;28;20024;-81
2022/01/09 03:48:07;;;;;;;0.10;0.10;;;;;;;0.16;100.00;91138.13;2090264;28;20043;-81
2022/01/09 03:49:09;;;;;;;0.10;0.10;;;;;;;0.25;100.00;91139.09;2081724;28;20421;-81
2022/01/09 03:50:17;;;;;;;0.10;0.10;;;;;;;0.16;100.00;91136.22;2090241;28;20028;-81
2022/01/09 03:51:18;;;;;;;0.28;0.20;;;;;;;0.13;100.00;91142.28;2099166;28;20032;-80
2022/01/09 03:52:26;;;;;;;0.17;0.17;;;;;;;0.15;100.00;91149.78;2098121;28;20035;-81
2022/01/09 03:53:35;;;;;;;0.10;0.10;;;;;;;-0.08;100.00;91153.09;2089803;28;20094;-83
2022/01/09 03:54:37;;;;;;;0.10;0.10;;;;;;;-0.09;100.00;91160.25;2096339;28;20020;-84
2022/01/09 03:55:38;;;;;;;0.20;0.20;;;;;;;0.12;100.00;91153.91;2097850;28;20568;-81
2022/01/09 03:56:39;;;;;;;0.20;0.20;;;;;;;-0.05;100.00;91160.91;2098133;28;20036;-81
2022/01/09 03:57:41;;;;;;;0.10;0.10;;;;;;;-0.14;100.00;91165.19;2098068;28;20020;-80
2022/01/09 03:58:42;;;;;;;0.10;0.10;;;;;;;-0.06;100.00;91154.19;2081539;28;20057;-83
2022/01/09 03:59:42;;;;;;;0.20;0.20;;;;;;;-0.15;100.00;91161.81;2087028;28;20021;-81
2022/01/09 04:00:43;;;;;;;0.13;0.10;;;;;;;-0.07;100.00;91165.84;2085718;28;20125;-82
2022/01/09 04:01:45;;;;;;;0.10;0.10;;;;;;;-0.25;100.00;91162.72;2098115;28;20020;-82
2022/01/09 04:02:48;;;;;;;0.40;0.20;;;;;;;-0.23;100.00;91178.06;2098227;28;20078;-82
2022/01/09 04:03:50;;;;;;;0.20;0.10;;;;;;;-0.19;100.00;91174.25;2089855;28;20028;-82
2022/01/09 04:04:52;;;;;;;0.15;0.15;;;;;;;-0.28;100.00;91197.63;2078687;28;20025;-81
2022/01/09 04:06:12;;;;;;;0.10;0.10;;;;;;;-0.27;100.00;91185.97;2083131;28;20083;-82
2022/01/09 04:07:19;;;;;;;0.10;0.10;;;;;;;-0.08;100.00;91190.59;2086680;28;20032;-81
2022/01/09 04:08:20;;;;;;;0.93;0.20;;;;;;;-0.17;100.00;91189.63;2083158;28;20029;-82
2022/01/09 04:09:36;;;;;;;0.35;0.35;;;;;;;-0.09;100.00;91202.25;2081633;28;20395;-83
2022/01/09 04:10:51;;;;;;;2.20;0.20;;;;;;;-0.30;100.00;91192.78;2077592;28;20042;-82
2022/01/09 04:12:03;;;;;;;1.75;0.10;;;;;;;-0.19;100.00;91205.00;2088057;28;20024;-83
2022/01/09 04:13:05;;;;;;;0.10;0.10;;;;;;;-0.10;100.00;91219.13;2084778;28;20143;-81
2022/01/09 04:14:07;;;;;;;1.73;0.20;;;;;;;-0.18;100.00;91211.75;2089861;28;20068;-81
2022/01/09 04:15:08;;;;;;;1.45;0.20;;;;;;;-0.13;100.00;91235.69;2073571;28;20034;-85
2022/01/09 04:16:10;;;;;;;0.10;0.10;;;;;;;-0.19;100.00;91234.63;2073311;28;20537;-82
2022/01/09 04:17:25;;;;;;;0.10;0.10;;;;;;;-0.11;100.00;91236.03;2074422;28;20033;-84
2022/01/09 04:18:28;;;;;;;0.10;0.10;;;;;;;-0.19;100.00;91254.88;2083508;28;20021;-83
2022/01/09 04:19:29;;;;;;;0.17;0.17;;;;;;;-0.25;100.00;91238.84;2081963;28;20034;-81
2022/01/09 04:20:32;;;;;;;0.10;0.10;;;;;;;-0.23;100.00;91246.31;2089812;28;20398;-83
2022/01/09 04:21:33;;;;;;;0.10;0.10;;;;;;;-0.33;100.00;91245.31;2085715;28;20104;-83
2022/01/09 04:22:34;;;;;;;1.00;0.17;;;;;;;-0.36;100.00;91246.81;2089736;28;20029;-82
2022/01/09 04:23:35;;;;;;;0.20;0.20;;;;;;;-0.30;100.00;91268.16;2097880;28;20131;-83
2022/01/09 04:24:36;;;;;;;0.25;0.10;;;;;;;-0.29;100.00;91265.13;2094060;28;20024;-82
2022/01/09 04:25:38;;;;;;;0.10;0.10;;;;;;;-0.41;100.00;91262.25;2089738;28;20032;-83
2022/01/09 04:26:40;;;;;;;0.10;0.10;;;;;;;-0.32;100.00;91270.41;2081323;28;20466;-84
2022/01/09 04:27:48;;;;;;;0.10;0.10;;;;;;;-0.41;100.00;91276.13;2081740;28;20112;-81
2022/01/09 04:28:55;;;;;;;0.20;0.20;;;;;;;-0.41;100.00;91272.75;2082527;28;20021;-82
2022/01/09 04:29:56;;;;;;;0.20;0.20;;;;;;;-0.34;100.00;91276.06;2086898;28;20029;-83
2022/01/09 04:30:57;;;;;;;0.10;0.10;;;;;;;-0.29;100.00;91280.13;2096801;28;20051;-84
2022/01/09 04:32:06;;;;;;;0.10;0.10;;;;;;;-0.36;100.00;91290.69;2097861;28;20032;-82
2022/01/09 04:33:09;;;;;;;1.50;0.10;;;;;;;-0.29;100.00;91282.75;2082334;28;20731;-82
2022/01/09 04:34:10;;;;;;;0.10;0.10;;;;;;;-0.29;100.00;91295.88;2081518;28;20033;-81
2022/01/09 04:35:11;;;;;;;0.20;0.20;;;;;;;-0.23;100.00;91299.56;2065988;28;20026;-83
2022/01/09 04:36:12;;;;;;;0.10;0.10;;;;;;;-0.26;100.00;91292.47;2089581;28;20024;-81
2022/01/09 04:37:13;;;;;;;0.10;0.10;;;;;;;-0.30;100.00;91295.13;2103207;28;20354;-82
2022/01/09 04:38:14;;;;;;;0.10;0.10;;;;;;;-0.44;100.00;91294.53;2097778;28;20032;-84
2022/01/09 04:39:15;;;;;;;0.10;0.10;;;;;;;-0.35;100.00;91306.06;2089395;28;20021;-82
2022/01/09 04:40:18;;;;;;;1.65;0.20;;;;;;;-0.23;100.00;91304.81;2089818;28;20025;-84
2022/01/09 04:41:22;;;;;;;0.10;0.10;;;;;;;-0.15;100.00;91303.59;2089571;28;20130;-84
2022/01/09 04:42:33;;;;;;;0.10;0.10;;;;;;;-0.21;100.00;91313.06;2082173;28;20024;-84
2022/01/09 04:43:34;;;;;;;0.10;0.10;;;;;;;-0.29;100.00;91312.38;2090898;28;20025;-84
2022/01/09 04:44:35;;;;;;;0.10;0.10;;;;;;;-0.29;100.00;91311.63;2089589;28;20048;-83
2022/01/09 04:45:41;;;;;;;0.10;0.10;;;;;;;-0.27;100.00;91317.22;2089776;28;20021;-83
2022/01/09 04:46:49;;;;;;;0.10;0.10;;;;;;;-0.36;100.00;91312.44;2089283;28;20300;-81
2022/01/09 04:47:56;;;;;;;0.10;0.10;;;;;;;-0.34;100.00;91322.56;2082197;28;20052;-83
2022/01/09 04:48:58;;;;;;;0.10;0.10;;;;;;;-0.31;100.00;91324.38;2090474;28;20025;-83
2022/01/09 04:50:02;;;;;;;0.10;0.10;;;;;;;-0.23;100.00;91325.06;2089213;28;20083;-84
2022/01/09 04:51:07;;;;;;;0.10;0.10;;;;;;;-0.36;100.00;91324.81;2074048;28;20033;-83
2022/01/09 04:52:15;;;;;;;1.38;0.10;;;;;;;-0.30;100.00;91334.50;2066678;28;20022;-81
2022/01/09 04:53:28;;;;;;;0.10;0.10;;;;;;;-0.24;100.00;91332.19;2092008;28;20025;-85
2022/01/09 04:54:29;;;;;;;0.10;0.10;;;;;;;-0.25;100.00;91320.22;2084674;28;20021;-85
2022/01/09 04:55:35;;;;;;;0.10;0.10;;;;;;;-0.24;100.00;91320.97;2089417;28;20100;-85
2022/01/09 04:56:36;;;;;;;0.10;0.10;;;;;;;-0.24;100.00;91334.81;2082304;28;20032;-84
2022/01/09 04:57:37;;;;;;;0.10;0.10;;;;;;;-0.12;100.00;91326.44;2081696;28;20022;-83
2022/01/09 04:58:38;;;;;;;0.10;0.10;;;;;;;-0.09;100.00;91327.53;2089706;28;20447;-84
2022/01/09 04:59:39;;;;;;;0.15;0.15;;;;;;;-0.10;100.00;91326.03;2081216;28;20073;-82